MSC Ingrid — HOHA — position and weather

sailwx.info

Track history (hours):
 
Tides and Currents Weather Stations Pressure Air Temp Water Temp Dewpoint Dewpoint Depression Visibility Wind Speed Wind Dir Waves Ship Positions

MSC Ingrid

Last reported at 2015-Aug-01 21:22 UTC. Time now 2015-Aug-04 03:27 UTC.
Position N 14°08' W 060°42'.

Length 294 m; draft 12.6 m.

Type: Ship (hazmat cat A). MMSI: 354505000.

Date/timePositionNaut miles runAvg speedWind from/ knotsBaromVisibWave heightAir tempDewpointWater temp
2015-Aug-01 21:22N 14°08' W 060°42'1315.7
2015-Aug-01 20:33N 14°15' W 060°53'1515.4
2015-Aug-01 19:33N 14°21' W 061°08'1616.2
2015-Aug-01 18:33N 14°27' W 061°23'1716.7
2015-Aug-01 17:33N 14°33' W 061°39'  
2015-Jul-24 13:24N 32°06' W 081°01'5 6.1
2015-Jul-24 12:33N 32°06' W 081°07'2 0.2
2015-Jul-24 03:18N 32°08' W 081°08'0 0.0
2015-Jul-24 02:33N 32°08' W 081°08'0 0.0
2015-Jul-24 01:33N 32°08' W 081°08'0 0.0
2015-Jul-24 00:27N 32°08' W 081°08'0 0.0
2015-Jul-23 23:33N 32°08' W 081°08'0 0.0
2015-Jul-23 22:33N 32°08' W 081°08'3 3.1
2015-Jul-23 21:33N 32°05' W 081°06'5 5.4
2015-Jul-23 20:33N 32°05' W 080°59'1211.6
2015-Jul-23 19:34N 31°60' W 080°47'1313.1
2015-Jul-23 18:33N 31°57' W 080°32'1615.3
2015-Jul-23 17:31N 32°00' W 080°14'25218.0
2015-Jul-23 03:32N 34°16' W 076°00'4714.4
2015-Jul-23 00:16N 34°44' W 075°14'  
Track history (hours):
 
Tides and Currents Weather Stations Pressure Air Temp Water Temp Dewpoint Dewpoint Depression Visibility Wind Speed Wind Dir Waves Ship Positions

MSC Ingrid

Last reported at 2015-Aug-01 21:22 UTC. Time now 2015-Aug-04 03:27 UTC.
Position N 14°08' W 060°42'.

Length 294 m; draft 12.6 m.

Type: Ship (hazmat cat A). MMSI: 354505000.

Date/timePositionNaut miles runAvg speedWind from/ knotsBaromVisibWave heightAir tempDewpointWater temp
2015-Aug-01 21:22N 14°08' W 060°42'1315.7
2015-Aug-01 20:33N 14°15' W 060°53'1515.4
2015-Aug-01 19:33N 14°21' W 061°08'1616.2
2015-Aug-01 18:33N 14°27' W 061°23'1716.7
2015-Aug-01 17:33N 14°33' W 061°39'  
2015-Jul-24 13:24N 32°06' W 081°01'5 6.1
2015-Jul-24 12:33N 32°06' W 081°07'2 0.2
2015-Jul-24 03:18N 32°08' W 081°08'0 0.0
2015-Jul-24 02:33N 32°08' W 081°08'0 0.0
2015-Jul-24 01:33N 32°08' W 081°08'0 0.0
2015-Jul-24 00:27N 32°08' W 081°08'0 0.0
2015-Jul-23 23:33N 32°08' W 081°08'0 0.0
2015-Jul-23 22:33N 32°08' W 081°08'3 3.1
2015-Jul-23 21:33N 32°05' W 081°06'5 5.4
2015-Jul-23 20:33N 32°05' W 080°59'1211.6
2015-Jul-23 19:34N 31°60' W 080°47'1313.1
2015-Jul-23 18:33N 31°57' W 080°32'1615.3
2015-Jul-23 17:31N 32°00' W 080°14'25218.0
2015-Jul-23 03:32N 34°16' W 076°00'4714.4
2015-Jul-23 00:16N 34°44' W 075°14'  

Dump ship's entire track history